createdAt,value
2024-05-09T00:00:22.148Z,68.81
2024-05-09T00:01:16.489Z,68.91
2024-05-09T00:02:15.450Z,68.95
2024-05-09T00:03:15.480Z,69.15
2024-05-09T00:04:15.493Z,69.25
2024-05-09T00:05:15.534Z,68.84
2024-05-09T00:06:15.446Z,69.25
2024-05-09T00:07:15.409Z,69.15
2024-05-09T00:08:15.457Z,69.05
2024-05-09T00:09:15.383Z,69.15
2024-05-09T00:10:25.043Z,68.84
2024-05-09T00:11:16.385Z,68.95
2024-05-09T00:12:15.471Z,68.84
2024-05-09T00:13:15.331Z,69.05
2024-05-09T00:14:15.370Z,69.25
2024-05-09T00:15:15.306Z,69.49
2024-05-09T00:16:15.295Z,69.69
2024-05-09T00:17:15.421Z,69.90
2024-05-09T00:18:15.424Z,69.90
2024-05-09T00:19:15.370Z,69.69
2024-05-09T00:20:20.505Z,70.00
2024-05-09T00:21:16.325Z,69.79
2024-05-09T00:22:15.248Z,69.76
2024-05-09T00:23:15.303Z,69.76
2024-05-09T00:24:15.202Z,69.86
2024-05-09T00:25:15.194Z,69.76
2024-05-09T00:26:15.224Z,69.66
2024-05-09T00:27:15.178Z,69.35
2024-05-09T00:28:15.193Z,69.15
2024-05-09T00:29:15.199Z,69.35
2024-05-09T00:30:24.133Z,69.35
2024-05-09T00:31:16.136Z,68.84
2024-05-09T00:32:15.219Z,69.15
2024-05-09T00:33:15.265Z,69.25
2024-05-09T00:34:15.184Z,69.15
2024-05-09T00:35:15.187Z,68.95
2024-05-09T00:36:15.072Z,69.05
2024-05-09T00:37:15.090Z,69.05
2024-05-09T00:38:15.092Z,69.08
2024-05-09T00:39:15.041Z,69.49
2024-05-09T00:40:22.771Z,69.82
2024-05-09T00:41:18.937Z,70.23
2024-05-09T00:42:15.030Z,70.64
2024-05-09T00:43:15.522Z,70.64
2024-05-09T00:44:15.025Z,70.54
2024-05-09T00:45:14.984Z,70.64
2024-05-09T00:46:14.978Z,70.34
2024-05-09T00:47:15.056Z,70.23
2024-05-09T00:48:17.712Z,70.14
2024-05-09T00:49:15.075Z,70.34
2024-05-09T00:50:19.419Z,70.23
2024-05-09T00:51:16.030Z,70.54
2024-05-09T00:52:14.907Z,70.03
2024-05-09T00:53:15.227Z,70.03
2024-05-09T00:54:14.883Z,70.14
2024-05-09T00:55:14.868Z,70.23
2024-05-09T00:56:14.908Z,70.44
2024-05-09T00:57:14.850Z,70.54
2024-05-09T00:58:14.863Z,70.57
2024-05-09T00:59:14.845Z,70.68
2024-05-09T01:00:25.995Z,70.44
2024-05-09T01:01:15.896Z,70.34
2024-05-09T01:02:14.897Z,70.23
2024-05-09T01:03:15.009Z,70.03
2024-05-09T01:04:14.787Z,70.14
2024-05-09T01:05:14.872Z,70.23
2024-05-09T01:06:14.750Z,70.23
2024-05-09T01:07:14.736Z,70.17
2024-05-09T01:08:14.836Z,70.17
2024-05-09T01:09:14.731Z,70.27
2024-05-09T01:10:21.165Z,70.47
2024-05-09T01:11:15.884Z,70.68
2024-05-09T01:12:15.011Z,70.57
2024-05-09T01:13:14.683Z,70.81
2024-05-09T01:14:14.741Z,71.22
2024-05-09T01:15:14.680Z,71.22
2024-05-09T01:16:14.648Z,71.56
2024-05-09T01:17:14.723Z,71.56
2024-05-09T01:18:14.966Z,71.56
2024-05-09T01:19:14.843Z,71.63
2024-05-09T01:20:20.193Z,71.53
2024-05-09T01:21:15.765Z,71.63
2024-05-09T01:22:14.581Z,71.53
2024-05-09T01:23:16.140Z,71.33
2024-05-09T01:24:14.590Z,71.22
2024-05-09T01:25:14.554Z,71.12
2024-05-09T01:26:14.603Z,71.12
2024-05-09T01:27:14.533Z,71.22
2024-05-09T01:28:14.539Z,71.01
2024-05-09T01:29:14.547Z,71.01
2024-05-09T01:30:17.465Z,70.92
2024-05-09T01:31:15.484Z,71.01
2024-05-09T01:32:14.620Z,71.01
2024-05-09T01:33:14.828Z,71.22
2024-05-09T01:34:14.507Z,71.01
2024-05-09T01:35:14.501Z,71.01
2024-05-09T01:36:14.443Z,70.92
2024-05-09T01:37:14.425Z,70.81
2024-05-09T01:38:14.504Z,70.95
2024-05-09T01:39:14.411Z,71.05
2024-05-09T01:40:18.633Z,71.15
2024-05-09T01:41:15.450Z,71.36
2024-05-09T01:42:14.389Z,71.80
2024-05-09T01:43:14.376Z,72.11
2024-05-09T01:44:14.400Z,72.41
2024-05-09T01:45:14.344Z,72.21
2024-05-09T01:46:14.332Z,72.21
2024-05-09T01:47:14.458Z,72.21
2024-05-09T01:48:14.481Z,72.11
2024-05-09T01:49:14.536Z,71.70
2024-05-09T01:51:14.413Z,71.56
2024-05-09T01:52:14.287Z,71.36
2024-05-09T01:53:15.142Z,71.36
2024-05-09T01:54:14.254Z,71.46
2024-05-09T01:55:14.235Z,71.56
2024-05-09T01:56:14.318Z,71.56
2024-05-09T01:57:14.228Z,71.66
2024-05-09T01:58:14.208Z,71.66
2024-05-09T01:59:14.364Z,71.77
2024-05-09T02:00:22.097Z,71.46
2024-05-09T02:01:15.261Z,71.46
2024-05-09T02:02:14.291Z,71.36
2024-05-09T02:03:16.619Z,71.49
2024-05-09T02:04:14.410Z,71.59
2024-05-09T02:05:14.314Z,71.49
2024-05-09T02:06:14.208Z,71.39
2024-05-09T02:07:14.107Z,71.59
2024-05-09T02:08:14.162Z,71.15
2024-05-09T02:09:14.090Z,71.46
2024-05-09T02:10:20.323Z,71.25
2024-05-09T02:11:15.165Z,71.15
2024-05-09T02:12:14.137Z,71.05
2024-05-09T02:13:14.039Z,71.25
2024-05-09T02:14:14.052Z,71.36
2024-05-09T02:15:14.033Z,70.84
2024-05-09T02:16:14.021Z,70.64
2024-05-09T02:17:14.172Z,70.64
2024-05-09T02:18:14.488Z,70.88
2024-05-09T02:19:14.130Z,71.08
2024-05-09T02:20:22.429Z,71.08
2024-05-09T02:21:15.000Z,71.19
2024-05-09T02:22:13.945Z,71.62
2024-05-09T02:23:14.116Z,72.24
2024-05-09T02:24:13.946Z,72.34
2024-05-09T02:25:13.938Z,72.34
2024-05-09T02:26:13.966Z,72.34
2024-05-09T02:27:13.907Z,72.45
2024-05-09T02:28:13.892Z,72.55
2024-05-09T02:29:13.910Z,72.65
2024-05-09T02:30:22.498Z,72.58
2024-05-09T02:31:14.842Z,72.34
2024-05-09T02:32:14.100Z,72.34
2024-05-09T02:33:14.641Z,72.34
2024-05-09T02:34:13.915Z,72.24
2024-05-09T02:35:13.909Z,72.14
2024-05-09T02:36:13.822Z,72.14
2024-05-09T02:37:13.790Z,72.34
2024-05-09T02:38:13.935Z,72.34
2024-05-09T02:39:13.764Z,72.45
2024-05-09T02:40:15.113Z,72.48
2024-05-09T02:41:14.807Z,72.48
2024-05-09T02:42:13.734Z,72.34
2024-05-09T02:43:13.736Z,72.34
2024-05-09T02:44:13.747Z,72.14
2024-05-09T02:45:13.709Z,72.14
2024-05-09T02:46:13.694Z,72.14
2024-05-09T02:47:13.771Z,72.04
2024-05-09T02:48:14.366Z,72.04
2024-05-09T02:49:13.826Z,71.94
2024-05-09T02:50:19.381Z,71.73
2024-05-09T02:51:14.652Z,71.97
2024-05-09T02:52:13.654Z,72.07
2024-05-09T02:53:14.297Z,72.28
2024-05-09T02:54:13.616Z,72.52
2024-05-09T02:55:13.586Z,72.92
2024-05-09T02:56:13.605Z,72.92
2024-05-09T02:57:13.588Z,72.72
2024-05-09T02:58:13.564Z,72.61
2024-05-09T02:59:13.607Z,72.72
2024-05-09T03:00:19.046Z,72.52
2024-05-09T03:01:14.609Z,72.61
2024-05-09T03:02:13.621Z,72.61
2024-05-09T03:03:15.397Z,72.48
2024-05-09T03:04:13.582Z,72.17
2024-05-09T03:05:13.598Z,72.17
2024-05-09T03:06:13.502Z,72.07
2024-05-09T03:07:13.474Z,72.41
2024-05-09T03:08:13.587Z,72.72
2024-05-09T03:09:13.444Z,72.92
2024-05-09T03:10:21.894Z,72.82
2024-05-09T03:11:14.537Z,72.72
2024-05-09T03:12:13.557Z,72.61
2024-05-09T03:13:14.938Z,72.52
2024-05-09T03:14:13.424Z,72.31
2024-05-09T03:15:13.381Z,72.20
2024-05-09T03:16:13.407Z,72.11
2024-05-09T03:17:13.407Z,71.90
2024-05-09T03:18:13.899Z,71.80
2024-05-09T03:19:13.584Z,71.39
2024-05-09T03:20:20.514Z,71.66
2024-05-09T03:21:14.370Z,71.49
2024-05-09T03:22:13.305Z,71.36
2024-05-09T03:23:13.470Z,71.45
2024-05-09T03:24:13.290Z,71.39
2024-05-09T03:25:13.293Z,71.49
2024-05-09T03:26:13.317Z,71.59
2024-05-09T03:27:13.258Z,71.69
2024-05-09T03:28:13.265Z,72.11
2024-05-09T03:29:13.278Z,72.00
2024-05-09T03:30:25.624Z,72.00
2024-05-09T03:31:14.210Z,72.00
2024-05-09T03:32:13.306Z,72.31
2024-05-09T03:33:14.405Z,72.11
2024-05-09T03:34:13.240Z,72.00
2024-05-09T03:35:13.239Z,71.80
2024-05-09T03:36:13.156Z,71.90
2024-05-09T03:37:13.146Z,71.90
2024-05-09T03:38:13.323Z,71.90
2024-05-09T03:39:13.160Z,71.69
2024-05-09T03:40:20.284Z,71.80
2024-05-09T03:41:14.184Z,71.49
2024-05-09T03:42:13.088Z,71.59
2024-05-09T03:43:13.141Z,71.49
2024-05-09T03:44:13.138Z,71.59
2024-05-09T03:45:13.071Z,71.80
2024-05-09T03:46:13.057Z,71.90
2024-05-09T03:47:13.094Z,71.90
2024-05-09T03:48:13.342Z,71.80
2024-05-09T03:49:13.138Z,71.49
2024-05-09T03:50:21.921Z,71.39
2024-05-09T03:51:14.007Z,71.69
2024-05-09T03:52:12.996Z,71.80
2024-05-09T03:53:13.116Z,71.59
2024-05-09T03:54:12.962Z,71.49
2024-05-09T03:55:12.966Z,71.49
2024-05-09T03:56:13.053Z,71.69
2024-05-09T03:57:12.963Z,71.59
2024-05-09T03:58:13.134Z,71.69
2024-05-09T03:59:12.966Z,71.49
2024-05-09T04:00:18.217Z,71.28
2024-05-09T04:01:13.946Z,71.80
2024-05-09T04:02:13.026Z,71.80
2024-05-09T04:03:13.582Z,71.69
2024-05-09T04:04:12.931Z,71.80
2024-05-09T04:05:12.903Z,72.00
2024-05-09T04:06:12.839Z,72.11
2024-05-09T04:07:12.851Z,72.31
2024-05-09T04:08:12.951Z,72.31
2024-05-09T04:09:12.815Z,72.00
2024-05-09T04:10:21.081Z,72.31
2024-05-09T04:11:13.927Z,72.31
2024-05-09T04:12:12.886Z,72.41
2024-05-09T04:13:12.768Z,72.52
2024-05-09T04:14:12.802Z,72.72
2024-05-09T04:15:13.699Z,72.92
2024-05-09T04:16:12.764Z,73.23
2024-05-09T04:17:12.815Z,73.33
2024-05-09T04:18:12.898Z,73.03
2024-05-09T04:19:12.844Z,72.82
2024-05-09T04:20:21.383Z,72.92
2024-05-09T04:21:13.718Z,73.23
2024-05-09T04:22:12.669Z,73.03
2024-05-09T04:23:13.540Z,73.06
2024-05-09T04:24:12.648Z,72.96
2024-05-09T04:25:12.690Z,73.23
2024-05-09T04:26:12.704Z,73.13
2024-05-09T04:27:12.649Z,73.13
2024-05-09T04:28:12.720Z,72.75
2024-05-09T04:29:12.696Z,73.27
2024-05-09T04:30:21.584Z,73.78
2024-05-09T04:31:13.533Z,73.57
2024-05-09T04:32:12.698Z,73.54
2024-05-09T04:33:14.186Z,73.95
2024-05-09T04:34:12.946Z,73.95
2024-05-09T04:35:12.528Z,74.15
2024-05-09T04:36:12.476Z,74.26
2024-05-09T04:37:12.471Z,73.95
2024-05-09T04:38:12.788Z,74.05
2024-05-09T04:39:12.538Z,73.85
2024-05-09T04:40:24.010Z,73.85
2024-05-09T04:41:13.509Z,74.66
2024-05-09T04:42:12.466Z,74.15
2024-05-09T04:43:12.456Z,74.66
2024-05-09T04:44:12.547Z,74.97
2024-05-09T04:45:12.432Z,74.97
2024-05-09T04:46:12.415Z,74.46
2024-05-09T04:47:12.537Z,74.56
2024-05-09T04:48:12.581Z,74.77
2024-05-09T04:49:12.489Z,75.07
2024-05-09T04:50:17.867Z,75.18
2024-05-09T04:51:13.431Z,75.48
2024-05-09T04:52:12.369Z,75.79
2024-05-09T04:53:12.406Z,75.93
2024-05-09T04:54:25.766Z,75.89
2024-05-09T04:55:13.326Z,75.93
2024-05-09T04:56:12.418Z,76.14
2024-05-09T04:57:12.328Z,76.24
2024-05-09T04:58:12.397Z,76.85
2024-05-09T04:59:12.366Z,77.06
2024-05-09T05:00:14.980Z,77.36
2024-05-09T05:01:13.307Z,77.36
2024-05-09T05:02:12.336Z,77.67
2024-05-09T05:03:14.811Z,77.36
2024-05-09T05:04:12.344Z,77.12
2024-05-09T05:05:12.398Z,77.12
2024-05-09T05:06:12.233Z,77.02
2024-05-09T05:07:12.220Z,76.40
2024-05-09T05:08:12.575Z,76.20
2024-05-09T05:09:12.191Z,75.99
2024-05-09T05:10:17.892Z,76.17
2024-05-09T05:11:13.397Z,76.17
2024-05-09T05:12:12.395Z,75.86
2024-05-09T05:13:12.139Z,76.47
2024-05-09T05:14:12.187Z,76.98
2024-05-09T05:15:12.136Z,76.98
2024-05-09T05:16:12.118Z,76.88
2024-05-09T05:17:12.267Z,76.37
2024-05-09T05:18:12.156Z,76.06
2024-05-09T05:19:15.085Z,75.86
2024-05-09T05:20:15.257Z,76.13
2024-05-09T05:21:13.037Z,75.72
2024-05-09T05:22:12.001Z,75.65
2024-05-09T05:23:12.033Z,75.62
2024-05-09T05:24:12.031Z,76.34
2024-05-09T05:25:12.022Z,76.34
2024-05-09T05:26:12.026Z,76.03
2024-05-09T05:27:12.025Z,76.09
2024-05-09T05:28:11.941Z,76.20
2024-05-09T05:29:12.023Z,75.79
2024-05-09T05:30:17.856Z,75.48
2024-05-09T05:31:13.017Z,75.59
2024-05-09T05:32:12.099Z,75.79
2024-05-09T05:33:12.151Z,75.89
2024-05-09T05:34:11.991Z,75.59
2024-05-09T05:35:12.005Z,75.99
2024-05-09T05:36:11.924Z,75.59
2024-05-09T05:37:11.887Z,75.55
2024-05-09T05:38:11.956Z,75.45
2024-05-09T05:39:11.862Z,75.45
2024-05-09T05:40:17.363Z,75.55
2024-05-09T05:41:12.978Z,75.34
2024-05-09T05:42:11.860Z,75.24
2024-05-09T05:43:11.824Z,75.55
2024-05-09T05:44:11.877Z,75.41
2024-05-09T05:45:11.822Z,75.21
2024-05-09T05:46:11.804Z,74.80
2024-05-09T05:47:11.873Z,74.80
2024-05-09T05:48:11.892Z,75.00
2024-05-09T05:49:11.867Z,74.69
2024-05-09T05:50:20.905Z,75.41
2024-05-09T05:51:12.888Z,75.31
2024-05-09T05:52:11.774Z,75.07
2024-05-09T05:53:11.703Z,74.56
2024-05-09T05:54:11.664Z,74.35
2024-05-09T05:55:11.672Z,74.05
2024-05-09T05:56:11.682Z,73.84
2024-05-09T05:57:11.626Z,73.94
2024-05-09T05:58:11.639Z,73.44
2024-05-09T05:59:13.401Z,73.23
2024-05-09T06:00:15.107Z,73.44
2024-05-09T06:01:12.645Z,73.33
2024-05-09T06:02:11.631Z,73.44
2024-05-09T06:03:12.312Z,73.94
2024-05-09T06:04:11.658Z,73.94
2024-05-09T06:05:11.637Z,73.54
2024-05-09T06:06:11.588Z,73.44
2024-05-09T06:07:11.507Z,72.41
2024-05-09T06:08:11.670Z,71.91
2024-05-09T06:09:11.490Z,72.00
2024-05-09T06:10:17.398Z,72.00
2024-05-09T06:11:12.517Z,72.72
2024-05-09T06:12:11.677Z,72.69
2024-05-09T06:13:12.029Z,72.48
2024-05-09T06:14:11.510Z,72.17
2024-05-09T06:15:11.432Z,72.38
2024-05-09T06:16:11.421Z,72.28
2024-05-09T06:17:11.702Z,72.17
2024-05-09T06:18:12.530Z,72.07
2024-05-09T06:19:11.478Z,72.28
2024-05-09T06:20:20.177Z,72.07
2024-05-09T06:21:12.408Z,71.43
2024-05-09T06:22:11.362Z,71.22
2024-05-09T06:23:11.534Z,71.53
2024-05-09T06:24:11.323Z,71.22
2024-05-09T06:25:11.315Z,71.02
2024-05-09T06:26:11.318Z,71.33
2024-05-09T06:27:11.322Z,71.53
2024-05-09T06:28:11.435Z,71.33
2024-05-09T06:29:11.319Z,71.70
2024-05-09T06:30:24.821Z,71.91
2024-05-09T06:31:12.276Z,71.50
2024-05-09T06:32:11.385Z,71.19
2024-05-09T06:33:13.262Z,71.19
2024-05-09T06:34:11.304Z,71.09
2024-05-09T06:35:11.248Z,70.98
2024-05-09T06:36:11.219Z,70.98
2024-05-09T06:37:11.187Z,70.44
2024-05-09T06:38:11.787Z,70.34
2024-05-09T06:39:11.169Z,70.44
2024-05-09T06:40:12.562Z,70.54
2024-05-09T06:41:11.198Z,70.65
2024-05-09T06:42:11.153Z,70.44
2024-05-09T06:43:11.152Z,70.51
2024-05-09T06:44:11.176Z,69.90
2024-05-09T06:45:11.128Z,70.10
2024-05-09T06:46:11.093Z,70.10
2024-05-09T06:47:11.181Z,70.21
2024-05-09T06:48:11.401Z,70.61
2024-05-09T06:49:11.328Z,70.72
2024-05-09T06:50:19.639Z,69.36
2024-05-09T06:51:12.146Z,69.46
2024-05-09T06:52:11.034Z,69.87
2024-05-09T06:53:11.055Z,69.87
2024-05-09T06:54:11.014Z,69.87
2024-05-09T06:55:11.020Z,69.87
2024-05-09T06:56:11.052Z,70.38
2024-05-09T06:57:10.976Z,70.28
2024-05-09T06:58:10.973Z,70.48
2024-05-09T06:59:11.061Z,70.95
2024-05-09T07:00:15.641Z,70.75
2024-05-09T07:01:11.945Z,70.65
2024-05-09T07:02:10.979Z,70.24
2024-05-09T07:03:12.467Z,69.93
2024-05-09T07:04:11.187Z,69.93
2024-05-09T07:05:10.960Z,69.73
2024-05-09T07:06:10.911Z,69.80
2024-05-09T07:07:10.883Z,69.49
2024-05-09T07:08:11.005Z,69.40
2024-05-09T07:09:10.866Z,69.29
2024-05-09T07:10:17.770Z,69.40
2024-05-09T07:11:12.071Z,69.40
2024-05-09T07:12:10.902Z,69.26
2024-05-09T07:13:10.840Z,69.36
2024-05-09T07:14:10.851Z,69.26
2024-05-09T07:15:10.787Z,69.26
2024-05-09T07:16:10.796Z,69.57
2024-05-09T07:17:10.829Z,69.94
2024-05-09T07:18:11.092Z,69.64
2024-05-09T07:19:11.093Z,68.62
2024-05-09T07:20:16.193Z,68.62
2024-05-09T07:21:11.893Z,68.62
2024-05-09T07:22:10.725Z,68.69
2024-05-09T07:23:11.146Z,67.67
2024-05-09T07:24:10.692Z,67.36
2024-05-09T07:25:10.707Z,67.57
2024-05-09T07:26:10.706Z,68.08
2024-05-09T07:27:10.680Z,68.25
2024-05-09T07:28:10.654Z,68.25
2024-05-09T07:29:10.643Z,68.25
2024-05-09T07:31:10.624Z,67.94
2024-05-09T07:32:10.654Z,67.41
2024-05-09T07:33:10.761Z,67.41
2024-05-09T07:34:10.703Z,67.10
2024-05-09T07:35:10.631Z,66.29
2024-05-09T07:36:10.567Z,65.99
2024-05-09T07:37:10.578Z,65.95
2024-05-09T07:38:10.613Z,66.26
2024-05-09T07:39:10.536Z,65.14
2024-05-09T07:40:17.672Z,65.24
2024-05-09T07:41:11.594Z,65.24
2024-05-09T07:42:10.526Z,65.01
2024-05-09T07:43:10.498Z,65.01
2024-05-09T07:44:10.496Z,64.20
2024-05-09T07:45:29.648Z,64.10
2024-05-09T07:47:13.966Z,64.30
2024-05-09T07:48:27.556Z,63.06
2024-05-09T07:49:44.911Z,63.46
2024-05-09T07:50:53.872Z,63.26
2024-05-09T07:53:29.248Z,61.40
2024-05-09T07:53:37.151Z,61.80
2024-05-09T07:54:11.624Z,61.68
2024-05-09T07:55:10.584Z,62.08
2024-05-09T07:56:11.761Z,62.18
2024-05-09T07:57:10.419Z,62.29
2024-05-09T07:58:10.372Z,62.26
2024-05-09T07:59:10.318Z,61.85
2024-05-09T08:00:14.303Z,61.04
2024-05-09T08:01:10.425Z,60.81
2024-05-09T08:02:10.510Z,60.61
2024-05-09T08:03:10.375Z,59.70
2024-05-09T08:04:10.340Z,59.36
2024-05-09T08:05:10.344Z,58.05
2024-05-09T08:06:10.251Z,58.63
2024-05-09T08:07:10.318Z,58.43
2024-05-09T08:08:31.243Z,58.73
2024-05-09T08:09:13.904Z,58.00
2024-05-09T08:10:15.252Z,57.39
2024-05-09T08:11:11.300Z,57.49
2024-05-09T08:12:10.177Z,56.96
2024-05-09T08:13:10.254Z,57.16
2024-05-09T08:14:10.198Z,56.76
2024-05-09T08:15:10.151Z,57.23
2024-05-09T08:16:10.426Z,57.23
2024-05-09T08:17:10.158Z,57.34
2024-05-09T08:18:10.406Z,57.31
2024-05-09T08:19:10.203Z,55.90
2024-05-09T08:20:11.423Z,55.16
2024-05-09T08:21:10.117Z,55.36
2024-05-09T08:22:10.161Z,54.46
2024-05-09T08:23:10.096Z,52.42
2024-05-09T08:24:10.072Z,50.88
2024-05-09T08:25:11.903Z,50.98
2024-05-09T08:26:10.025Z,51.46
2024-05-09T08:27:10.041Z,51.93
2024-05-09T08:28:10.115Z,52.51
2024-05-09T08:29:10.001Z,49.30
2024-05-09T08:30:18.564Z,48.07
2024-05-09T08:31:11.072Z,49.05
2024-05-09T08:32:10.030Z,47.62
2024-05-09T08:33:10.084Z,46.89
2024-05-09T08:34:10.184Z,46.77
2024-05-09T08:35:09.962Z,46.67
2024-05-09T08:36:09.921Z,46.85
2024-05-09T08:37:15.515Z,45.32
2024-05-09T08:38:11.055Z,45.40
2024-05-09T08:39:09.904Z,44.98
2024-05-09T08:40:16.679Z,43.85
2024-05-09T08:41:10.876Z,43.85
2024-05-09T08:42:09.874Z,43.13
2024-05-09T08:43:11.894Z,43.41
2024-05-09T08:44:09.849Z,43.70
2024-05-09T08:45:09.833Z,43.09
2024-05-09T08:46:09.859Z,41.60
2024-05-09T08:47:09.944Z,41.67
2024-05-09T08:48:09.911Z,41.77
2024-05-09T08:49:10.038Z,42.25
2024-05-09T08:50:19.955Z,41.16
2024-05-09T08:51:10.791Z,39.74
2024-05-09T08:52:09.988Z,39.92
2024-05-09T08:53:09.755Z,40.52
2024-05-09T08:54:09.753Z,40.00
2024-05-09T08:55:09.917Z,39.68
2024-05-09T08:56:09.744Z,39.68
2024-05-09T08:57:09.713Z,37.68
2024-05-09T08:58:09.794Z,38.59
2024-05-09T08:59:09.690Z,38.46
2024-05-09T09:00:14.835Z,37.47
2024-05-09T09:01:10.742Z,37.67
2024-05-09T09:02:09.798Z,37.57
2024-05-09T09:03:09.766Z,37.85
2024-05-09T09:04:09.803Z,37.25
2024-05-09T09:05:09.909Z,37.73
2024-05-09T09:06:09.639Z,38.13
2024-05-09T09:07:09.698Z,36.54
2024-05-09T09:08:09.586Z,36.62
2024-05-09T09:09:09.586Z,36.82
2024-05-09T09:10:12.959Z,37.30
2024-05-09T09:11:10.640Z,36.80
2024-05-09T09:12:10.726Z,37.10
2024-05-09T09:13:10.056Z,37.79
2024-05-09T09:14:09.538Z,36.78
2024-05-09T09:15:09.535Z,37.18
2024-05-09T09:16:09.572Z,36.98
2024-05-09T09:17:09.592Z,36.49
2024-05-09T09:18:12.257Z,37.26
2024-05-09T09:19:09.656Z,37.06
2024-05-09T09:20:14.332Z,37.94
2024-05-09T09:21:10.454Z,37.45
2024-05-09T09:22:09.503Z,36.53
2024-05-09T09:23:09.443Z,36.43
2024-05-09T09:24:10.070Z,36.04
2024-05-09T09:25:09.580Z,35.54
2024-05-09T09:26:09.405Z,36.23
2024-05-09T09:27:09.389Z,36.83
2024-05-09T09:28:09.803Z,36.02
2024-05-09T09:29:09.390Z,35.72
2024-05-09T09:30:22.856Z,35.52
2024-05-09T09:31:10.410Z,35.82
2024-05-09T09:32:09.336Z,34.83
2024-05-09T09:33:09.575Z,35.71
2024-05-09T09:34:09.536Z,35.80
2024-05-09T09:35:09.363Z,35.39
2024-05-09T09:36:11.578Z,34.59
2024-05-09T09:37:09.593Z,35.49
2024-05-09T09:38:09.307Z,34.68
2024-05-09T09:39:09.287Z,33.78
2024-05-09T09:40:12.878Z,34.27
2024-05-09T09:41:09.334Z,33.39
2024-05-09T09:42:09.245Z,34.76
2024-05-09T09:43:09.339Z,34.76
2024-05-09T09:44:09.230Z,33.47
2024-05-09T09:45:09.234Z,33.87
2024-05-09T09:46:12.429Z,33.95
2024-05-09T09:47:09.241Z,34.43
2024-05-09T09:48:09.277Z,33.06
2024-05-09T09:49:09.451Z,33.45
2024-05-09T09:50:14.309Z,34.03
2024-05-09T09:51:10.150Z,34.63
2024-05-09T09:52:11.218Z,33.92
2024-05-09T09:53:09.139Z,33.52
2024-05-09T09:54:09.128Z,33.62
2024-05-09T09:55:09.250Z,33.61
2024-05-09T09:56:09.189Z,32.92
2024-05-09T09:57:09.113Z,33.80
2024-05-09T09:58:11.983Z,32.32
2024-05-09T09:59:09.075Z,32.64
2024-05-09T10:00:11.810Z,33.80
2024-05-09T10:01:10.214Z,33.09
2024-05-09T10:02:09.465Z,32.68
2024-05-09T10:03:09.108Z,32.09
2024-05-09T10:04:09.141Z,31.91
2024-05-09T10:05:09.097Z,34.17
2024-05-09T10:06:09.124Z,32.60
2024-05-09T10:07:09.144Z,32.70
2024-05-09T10:08:08.981Z,32.68
2024-05-09T10:09:08.972Z,32.19
2024-05-09T10:10:11.035Z,32.09
2024-05-09T10:11:09.039Z,32.39
2024-05-09T10:12:09.529Z,32.68
2024-05-09T10:13:09.184Z,32.18
2024-05-09T10:14:08.924Z,31.50
2024-05-09T10:15:08.932Z,32.59
2024-05-09T10:16:09.125Z,32.98
2024-05-09T10:17:08.905Z,32.19
2024-05-09T10:18:09.021Z,31.88
2024-05-09T10:19:08.957Z,31.68
2024-05-09T10:20:14.897Z,31.88
2024-05-09T10:21:09.865Z,32.59
2024-05-09T10:22:09.046Z,32.29
2024-05-09T10:23:08.830Z,31.70
2024-05-09T10:24:08.817Z,32.10
2024-05-09T10:25:08.818Z,32.49
2024-05-09T10:26:08.870Z,31.60
2024-05-09T10:27:08.782Z,31.90
2024-05-09T10:28:08.917Z,32.39
2024-05-09T10:29:08.775Z,31.68
2024-05-09T10:30:14.427Z,32.28
2024-05-09T10:31:09.919Z,31.59
2024-05-09T10:32:08.728Z,32.06
2024-05-09T10:33:08.757Z,31.37
2024-05-09T10:34:08.901Z,31.85
2024-05-09T10:35:08.790Z,31.95
2024-05-09T10:36:08.682Z,32.34
2024-05-09T10:37:08.703Z,31.35
2024-05-09T10:38:08.695Z,31.09
2024-05-09T10:39:08.828Z,31.71
2024-05-09T10:40:14.251Z,32.64
2024-05-09T10:41:09.633Z,32.65
2024-05-09T10:42:08.621Z,33.67
2024-05-09T10:43:08.671Z,34.17
2024-05-09T10:44:08.587Z,34.18
2024-05-09T10:45:08.589Z,34.10
2024-05-09T10:46:08.911Z,34.50
2024-05-09T10:47:08.615Z,35.50
2024-05-09T10:48:08.722Z,34.23
2024-05-09T10:49:08.719Z,34.83
2024-05-09T10:50:18.054Z,34.64
2024-05-09T10:51:09.604Z,34.34
2024-05-09T10:52:08.861Z,34.53
2024-05-09T10:53:08.541Z,35.39
2024-05-09T10:54:08.486Z,34.08
2024-05-09T10:55:08.524Z,32.98
2024-05-09T10:56:08.495Z,33.26
2024-05-09T10:57:08.486Z,34.05
2024-05-09T10:58:08.637Z,34.23
2024-05-09T10:59:08.445Z,34.31
2024-05-09T11:00:15.599Z,32.62
2024-05-09T11:01:09.530Z,32.03
2024-05-09T11:02:08.769Z,32.80
2024-05-09T11:03:08.435Z,32.39
2024-05-09T11:04:08.584Z,32.39
2024-05-09T11:05:08.465Z,30.91
2024-05-09T11:06:08.364Z,31.09
2024-05-09T11:07:08.437Z,30.19
2024-05-09T11:08:08.337Z,30.29
2024-05-09T11:09:08.335Z,30.29
2024-05-09T11:10:12.348Z,30.40
2024-05-09T11:11:08.941Z,31.29
2024-05-09T11:12:08.419Z,31.67
2024-05-09T11:13:08.468Z,30.29
2024-05-09T11:14:08.314Z,30.76
2024-05-09T11:15:08.288Z,31.16
2024-05-09T11:16:08.387Z,32.34
2024-05-09T11:17:08.327Z,31.34
2024-05-09T11:18:08.351Z,30.26
2024-05-09T11:19:08.355Z,30.73
2024-05-09T11:20:13.806Z,30.63
2024-05-09T11:21:09.269Z,30.73
2024-05-09T11:22:08.387Z,30.16
2024-05-09T11:23:08.218Z,30.66
2024-05-09T11:24:11.169Z,30.68
2024-05-09T11:25:08.288Z,32.67
2024-05-09T11:26:08.172Z,31.32
2024-05-09T11:27:08.158Z,31.53
2024-05-09T11:28:08.175Z,31.45
2024-05-09T11:29:08.139Z,31.57
2024-05-09T11:30:14.195Z,31.99
2024-05-09T11:31:09.962Z,32.71
2024-05-09T11:32:08.255Z,33.12
2024-05-09T11:33:08.159Z,33.42
2024-05-09T11:34:08.106Z,33.92
2024-05-09T11:35:08.098Z,34.41
2024-05-09T11:36:08.146Z,34.00
2024-05-09T11:37:08.075Z,33.11
2024-05-09T11:38:08.033Z,33.00
2024-05-09T11:39:08.047Z,33.00
2024-05-09T11:40:13.890Z,33.97
2024-05-09T11:41:09.065Z,34.05
2024-05-09T11:42:08.020Z,33.16
2024-05-09T11:43:08.043Z,33.45
2024-05-09T11:44:08.001Z,34.33
2024-05-09T11:45:07.992Z,33.24
2024-05-09T11:46:08.004Z,33.42
2024-05-09T11:47:08.047Z,32.14
2024-05-09T11:48:08.030Z,32.34
2024-05-09T11:49:08.157Z,34.10
2024-05-09T11:50:10.256Z,32.92
2024-05-09T11:51:08.935Z,31.71
2024-05-09T11:52:08.167Z,32.01
2024-05-09T11:53:07.940Z,31.32
2024-05-09T11:54:07.878Z,31.99
2024-05-09T11:55:07.967Z,31.38
2024-05-09T11:56:07.858Z,31.78
2024-05-09T11:57:07.848Z,32.06
2024-05-09T11:58:07.914Z,31.38
2024-05-09T11:59:07.834Z,30.10
2024-05-09T12:00:09.678Z,30.61
2024-05-09T12:01:07.923Z,31.60
2024-05-09T12:02:08.009Z,32.21
2024-05-09T12:03:07.815Z,31.81
2024-05-09T12:04:07.940Z,31.53
2024-05-09T12:05:07.824Z,32.22
2024-05-09T12:06:07.838Z,32.42
2024-05-09T12:07:09.700Z,32.60
2024-05-09T12:08:07.736Z,32.70
2024-05-09T12:09:07.723Z,32.90
2024-05-09T12:10:11.949Z,33.29
2024-05-09T12:11:08.822Z,32.60
2024-05-09T12:12:07.778Z,32.40
2024-05-09T12:13:08.075Z,32.40
2024-05-09T12:14:07.684Z,33.09
2024-05-09T12:15:07.668Z,32.31
2024-05-09T12:16:07.726Z,32.70
2024-05-09T12:17:07.728Z,31.82
2024-05-09T12:18:08.335Z,32.32
2024-05-09T12:19:07.743Z,32.42
2024-05-09T12:20:14.080Z,33.01
2024-05-09T12:21:08.621Z,31.84
2024-05-09T12:22:07.711Z,33.03
2024-05-09T12:23:08.394Z,33.82
2024-05-09T12:24:07.576Z,32.35
2024-05-09T12:25:07.635Z,32.85
2024-05-09T12:26:07.568Z,33.65
2024-05-09T12:27:07.546Z,33.26
2024-05-09T12:28:07.637Z,32.68
2024-05-09T12:29:07.514Z,32.50
2024-05-09T12:30:11.278Z,32.50
2024-05-09T12:31:07.581Z,33.11
2024-05-09T12:32:07.657Z,33.52
2024-05-09T12:33:07.909Z,34.53
2024-05-09T12:34:07.551Z,33.64
2024-05-09T12:35:07.491Z,35.14
2024-05-09T12:36:07.449Z,34.73
2024-05-09T12:37:07.495Z,34.94
2024-05-09T12:38:07.469Z,34.34
2024-05-09T12:39:07.419Z,33.85
2024-05-09T12:40:15.805Z,34.74
2024-05-09T12:41:08.411Z,34.34
2024-05-09T12:42:07.425Z,34.53
2024-05-09T12:43:08.331Z,34.83
2024-05-09T12:44:07.398Z,35.42
2024-05-09T12:45:07.375Z,34.63
2024-05-09T12:46:07.397Z,33.83
2024-05-09T12:47:07.344Z,33.64
2024-05-09T12:48:07.714Z,32.45
2024-05-09T12:49:07.694Z,32.45
2024-05-09T12:50:13.407Z,33.54
2024-05-09T12:51:08.287Z,32.36
2024-05-09T12:52:07.467Z,34.25
2024-05-09T12:53:07.276Z,34.06
2024-05-09T12:54:07.288Z,35.06
2024-05-09T12:55:07.315Z,35.36
2024-05-09T12:57:07.230Z,34.68